Time;durP1;ratioP1;P1;durP2;ratioP2;P2;SDS_P1;SDS_P2;PMS_P1;PMS_P2;Temp;Humidity;BMP_temperature;BMP_pressure;BME280_temperature;BME280_humidity;BME280_pressure;Samples;Min_cycle;Max_cycle;Signal;HPM_P1;HPM_P2
2022/09/09 00:01:41;;;;;;;1.33;1.00;;;18.10;98.50;;;;;;5046485;28;20211;-34
2022/09/09 00:04:27;;;;;;;2.97;1.07;;;18.20;98.90;;;;;;5051902;28;20199;-35
2022/09/09 00:07:16;;;;;;;3.43;1.30;;;18.20;98.60;;;;;;5046542;28;20227;-34
2022/09/09 00:09:59;;;;;;;4.83;1.00;;;18.20;98.60;;;;;;5064044;28;20711;-35
2022/09/09 00:12:49;;;;;;;2.13;1.10;;;18.20;98.40;;;;;;5046396;28;20638;-35
2022/09/09 00:15:22;;;;;;;3.03;1.27;;;18.20;98.50;;;;;;5058345;28;20295;-35
2022/09/09 00:17:55;;;;;;;2.47;1.10;;;18.20;98.50;;;;;;5064571;28;20203;-35
2022/09/09 00:20:35;;;;;;;3.33;1.15;;;18.20;98.50;;;;;;5053618;28;20252;-36
2022/09/09 00:23:24;;;;;;;3.15;1.02;;;18.20;98.70;;;;;;5054279;28;20215;-35
2022/09/09 00:26:32;;;;;;;1.77;0.90;;;18.10;98.70;;;;;;5047028;28;20674;-35
2022/09/09 00:29:27;;;;;;;4.93;1.27;;;18.10;98.80;;;;;;5056157;28;20211;-35
2022/09/09 00:31:59;;;;;;;3.60;0.80;;;18.10;98.80;;;;;;5047293;28;20671;-35
2022/09/09 00:34:30;;;;;;;3.30;1.20;;;18.10;98.80;;;;;;5049884;28;20232;-35
2022/09/09 00:37:02;;;;;;;3.50;1.00;;;18.10;98.70;;;;;;5050783;28;20200;-35
2022/09/09 00:39:42;;;;;;;1.23;0.80;;;18.10;98.70;;;;;;5059040;28;20211;-35
2022/09/09 00:42:31;;;;;;;3.53;1.08;;;18.10;98.80;;;;;;5056583;28;20245;-35
2022/09/09 00:45:32;;;;;;;2.85;1.10;;;18.10;98.90;;;;;;5051621;28;20295;-35
2022/09/09 00:48:08;;;;;;;2.92;0.90;;;18.10;98.80;;;;;;5059747;28;20207;-35
2022/09/09 00:50:43;;;;;;;3.28;1.17;;;18.10;98.80;;;;;;5070048;28;20314;-36
2022/09/09 00:53:17;;;;;;;2.33;1.07;;;18.10;98.90;;;;;;5058265;28;20757;-35
2022/09/09 00:56:14;;;;;;;3.35;1.00;;;18.10;98.80;;;;;;5053744;28;20228;-35
2022/09/09 00:58:50;;;;;;;2.57;1.23;;;18.10;99.00;;;;;;5055231;28;20236;-35
2022/09/09 01:01:17;;;;;;;2.90;0.90;;;18.00;98.90;;;;;;5059518;28;20195;-35
2022/09/09 01:03:55;;;;;;;2.73;0.80;;;18.10;98.80;;;;;;5048974;28;20572;-36
2022/09/09 01:06:38;;;;;;;2.67;1.30;;;18.10;99.00;;;;;;5057709;28;20211;-36
2022/09/09 01:09:15;;;;;;;2.47;1.00;;;18.10;98.90;;;;;;5067963;28;20211;-35
2022/09/09 01:12:16;;;;;;;2.22;1.00;;;18.10;98.90;;;;;;5053882;28;20837;-37
2022/09/09 01:14:51;;;;;;;2.03;0.90;;;18.10;99.10;;;;;;5058019;28;20674;-36
2022/09/09 01:17:30;;;;;;;2.67;1.10;;;18.10;99.00;;;;;;5047321;28;20365;-36
2022/09/09 01:20:29;;;;;;;2.95;1.10;;;18.10;99.00;;;;;;5043902;28;20211;-36
2022/09/09 01:23:09;;;;;;;5.15;1.55;;;18.10;99.10;;;;;;5057663;28;20211;-36
2022/09/09 01:26:11;;;;;;;2.35;1.17;;;18.10;99.10;;;;;;5055028;28;20192;-36
2022/09/09 01:28:41;;;;;;;3.08;0.80;;;18.10;99.30;;;;;;5058140;28;20214;-36
2022/09/09 01:31:55;;;;;;;3.60;1.10;;;18.10;99.00;;;;;;5066277;28;20235;-35
2022/09/09 01:34:28;;;;;;;2.97;1.00;;;18.10;99.20;;;;;;5051398;28;20202;-36
2022/09/09 01:37:10;;;;;;;3.70;0.90;;;18.10;99.20;;;;;;5048993;28;20492;-36
2022/09/09 01:39:43;;;;;;;2.05;0.93;;;18.10;99.20;;;;;;5049425;28;20751;-36
2022/09/09 01:42:15;;;;;;;2.80;1.23;;;18.10;99.20;;;;;;5059098;28;20206;-36
2022/09/09 01:44:45;;;;;;;4.07;1.10;;;18.10;99.20;;;;;;5059275;28;20230;-36
2022/09/09 01:47:14;;;;;;;2.35;0.88;;;18.10;99.10;;;;;;5066625;28;20206;-36
2022/09/09 01:49:41;;;;;;;2.95;1.00;;;18.10;99.20;;;;;;5060633;28;20211;-36
2022/09/09 01:52:11;;;;;;;2.67;0.90;;;18.10;99.20;;;;;;5053123;28;20255;-36
2022/09/09 01:54:41;;;;;;;3.85;1.23;;;18.10;99.30;;;;;;5055975;28;20326;-36
2022/09/09 01:57:27;;;;;;;1.87;0.77;;;18.10;99.20;;;;;;5062202;28;20211;-36
2022/09/09 02:00:06;;;;;;;6.23;1.30;;;18.10;99.50;;;;;;5049697;28;20202;-36
2022/09/09 02:02:53;;;;;;;1.87;1.10;;;18.10;99.30;;;;;;5046597;28;20633;-36
2022/09/09 02:05:43;;;;;;;2.73;0.90;;;18.10;99.20;;;;;;5052627;28;20609;-36
2022/09/09 02:08:22;;;;;;;4.57;1.00;;;18.10;99.40;;;;;;5063139;28;20227;-36
2022/09/09 02:10:49;;;;;;;1.77;0.80;;;18.10;99.30;;;;;;5054685;28;20381;-35
2022/09/09 02:13:22;;;;;;;2.28;0.63;;;18.10;99.30;;;;;;5061918;28;20213;-36
2022/09/09 02:16:12;;;;;;;2.17;1.13;;;18.10;99.30;;;;;;5049174;28;20217;-36
2022/09/09 02:18:48;;;;;;;2.27;0.80;;;18.20;99.40;;;;;;5051094;28;20200;-36
2022/09/09 02:21:20;;;;;;;2.80;1.00;;;18.20;99.40;;;;;;5064383;28;20617;-36
2022/09/09 02:23:56;;;;;;;2.63;0.73;;;18.20;99.30;;;;;;5059043;28;20211;-36
2022/09/09 02:26:26;;;;;;;3.13;0.97;;;18.20;99.40;;;;;;5052448;28;22159;-35
2022/09/09 02:28:59;;;;;;;2.27;0.90;;;18.20;99.30;;;;;;5051514;28;20204;-35
2022/09/09 02:31:29;;;;;;;3.13;1.00;;;18.20;99.30;;;;;;5049718;28;20203;-36
2022/09/09 02:34:01;;;;;;;2.43;1.00;;;18.20;99.30;;;;;;5053017;28;20593;-36
2022/09/09 02:36:33;;;;;;;3.63;0.80;;;18.20;99.30;;;;;;5065453;28;20215;-35
2022/09/09 02:39:01;;;;;;;3.67;0.93;;;18.20;99.30;;;;;;5063712;28;20824;-35
2022/09/09 02:41:35;;;;;;;4.25;1.10;;;18.20;99.30;;;;;;5065364;28;20216;-35
2022/09/09 02:44:09;;;;;;;1.98;1.10;;;18.20;99.40;;;;;;5053755;28;20237;-35
2022/09/09 02:46:46;;;;;;;6.27;1.17;;;18.20;99.40;;;;;;5062513;28;20209;-34
2022/09/09 02:49:33;;;;;;;3.33;0.90;;;18.20;99.40;;;;;;5058798;28;20210;-34
2022/09/09 02:52:18;;;;;;;1.80;0.73;;;18.20;99.30;;;;;;5057421;28;20567;-34
2022/09/09 02:54:47;;;;;;;3.17;0.83;;;18.20;99.40;;;;;;5045199;28;20208;-35
2022/09/09 02:57:20;;;;;;;7.80;1.67;;;18.20;99.40;;;;;;5063174;28;20195;-32
2022/09/09 02:59:48;;;;;;;5.75;1.38;;;18.20;99.40;;;;;;5049079;28;20313;-32
2022/09/09 03:02:15;;;;;;;7.20;2.00;;;18.20;99.40;;;;;;5049910;28;20205;-32
2022/09/09 03:04:44;;;;;;;4.97;1.10;;;18.20;99.50;;;;;;5059109;28;20208;-32
2022/09/09 03:07:12;;;;;;;4.07;1.30;;;18.20;99.40;;;;;;5063603;28;20208;-32
2022/09/09 03:09:41;;;;;;;3.30;0.90;;;18.20;99.70;;;;;;5067634;28;20215;-33
2022/09/09 03:12:13;;;;;;;3.63;1.10;;;18.10;99.50;;;;;;5055406;28;20203;-32
2022/09/09 03:14:46;;;;;;;6.35;1.25;;;18.20;99.70;;;;;;5049948;28;20671;-32
2022/09/09 03:17:13;;;;;;;2.77;1.17;;;18.20;99.60;;;;;;5053443;28;20219;-32
2022/09/09 03:19:43;;;;;;;6.00;1.27;;;18.20;99.40;;;;;;5055235;28;20203;-32
2022/09/09 03:22:13;;;;;;;3.25;1.25;;;18.20;99.50;;;;;;5052465;28;20203;-32
2022/09/09 03:24:46;;;;;;;3.20;0.80;;;18.20;99.50;;;;;;5044414;28;20208;-32
2022/09/09 03:27:16;;;;;;;6.70;1.20;;;18.20;99.40;;;;;;5046416;28;20253;-32
2022/09/09 03:29:44;;;;;;;3.72;1.00;;;18.20;99.50;;;;;;5056900;28;20591;-32
2022/09/09 03:32:12;;;;;;;4.30;1.30;;;18.20;99.70;;;;;;5045510;28;20240;-32
2022/09/09 03:34:44;;;;;;;3.03;0.80;;;18.20;99.40;;;;;;5056980;28;20744;-32
2022/09/09 03:37:11;;;;;;;3.37;1.00;;;18.20;99.50;;;;;;5056569;28;20307;-31
2022/09/09 03:39:41;;;;;;;5.77;1.33;;;18.20;99.40;;;;;;5051159;28;20705;-31
2022/09/09 03:42:08;;;;;;;4.00;1.17;;;18.20;99.60;;;;;;5057093;28;20650;-31
2022/09/09 03:44:36;;;;;;;7.13;1.27;;;18.20;99.60;;;;;;5049363;28;20572;-32
2022/09/09 03:47:03;;;;;;;2.83;0.75;;;18.20;99.50;;;;;;5047246;28;20214;-32
2022/09/09 03:49:30;;;;;;;6.80;1.20;;;18.20;99.50;;;;;;5047830;28;20588;-31
2022/09/09 03:51:58;;;;;;;3.92;1.15;;;18.20;99.90;;;;;;5060143;28;20204;-31
2022/09/09 03:54:26;;;;;;;6.13;1.88;;;18.20;99.90;;;;;;5052820;28;20559;-31
2022/09/09 03:56:53;;;;;;;5.13;1.43;;;18.20;99.60;;;;;;5051983;28;20465;-31
2022/09/09 03:59:23;;;;;;;4.60;1.10;;;18.20;99.60;;;;;;5048099;28;20285;-33
2022/09/09 04:01:50;;;;;;;4.00;1.15;;;18.30;99.70;;;;;;5061331;28;20326;-33
2022/09/09 04:04:20;;;;;;;4.80;1.30;;;18.20;99.60;;;;;;5062613;28;20253;-33
2022/09/09 04:06:50;;;;;;;6.13;1.50;;;18.20;99.60;;;;;;5067844;28;20701;-33
2022/09/09 04:09:19;;;;;;;5.53;1.13;;;18.20;99.50;;;;;;5061633;28;20252;-33
2022/09/09 04:11:53;;;;;;;3.67;1.07;;;18.20;99.60;;;;;;5059791;28;20207;-33
2022/09/09 04:14:22;;;;;;;5.25;1.45;;;18.20;99.60;;;;;;5065369;28;20770;-33
2022/09/09 04:16:49;;;;;;;3.57;1.07;;;18.20;99.60;;;;;;5055608;28;20231;-33
2022/09/09 04:19:19;;;;;;;5.17;1.13;;;18.20;99.80;;;;;;5050694;28;20650;-32
2022/09/09 04:21:48;;;;;;;4.93;1.20;;;18.20;99.60;;;;;;5063458;28;20301;-33
2022/09/09 04:24:18;;;;;;;5.07;1.03;;;18.20;99.60;;;;;;5052234;28;20200;-33
2022/09/09 04:26:46;;;;;;;4.53;0.90;;;18.20;99.60;;;;;;5052265;28;20227;-33
2022/09/09 04:29:16;;;;;;;5.13;1.13;;;18.20;99.60;;;;;;5062005;28;20204;-32
2022/09/09 04:31:45;;;;;;;5.73;1.47;;;18.10;99.60;;;;;;5059371;28;20199;-33
2022/09/09 04:34:12;;;;;;;3.93;0.93;;;18.10;99.60;;;;;;5065291;28;20203;-32
2022/09/09 04:36:40;;;;;;;3.63;1.13;;;18.10;99.70;;;;;;5066872;28;20308;-33
2022/09/09 04:39:09;;;;;;;6.63;1.30;;;18.10;99.70;;;;;;5053058;28;20196;-31
2022/09/09 04:41:39;;;;;;;5.37;1.30;;;18.10;99.70;;;;;;5058065;28;20207;-30
2022/09/09 04:44:09;;;;;;;4.40;1.10;;;18.20;99.80;;;;;;5061644;28;20706;-30
2022/09/09 04:46:37;;;;;;;3.73;1.20;;;18.20;99.80;;;;;;5058028;28;20204;-31
2022/09/09 04:49:07;;;;;;;5.40;1.30;;;18.10;99.80;;;;;;5056382;28;20239;-31
2022/09/09 04:51:42;;;;;;;5.27;1.23;;;18.20;99.80;;;;;;5052565;28;20215;-31
2022/09/09 04:54:12;;;;;;;8.67;2.50;;;18.20;99.90;;;;;;5052400;28;20220;-30
2022/09/09 04:56:43;;;;;;;7.57;1.93;;;18.20;99.80;;;;;;5051287;28;20216;-31
2022/09/09 04:59:10;;;;;;;6.00;1.53;;;18.20;99.80;;;;;;5049024;28;20265;-31
2022/09/09 05:01:42;;;;;;;3.70;1.10;;;18.20;99.80;;;;;;5056125;28;20578;-31
2022/09/09 05:04:10;;;;;;;3.63;1.47;;;18.20;99.80;;;;;;5053512;28;20208;-31
2022/09/09 05:06:39;;;;;;;4.37;1.40;;;18.10;99.80;;;;;;5060731;28;20259;-30
2022/09/09 05:09:14;;;;;;;8.97;1.50;;;18.10;99.80;;;;;;5055268;28;21014;-31
2022/09/09 05:11:41;;;;;;;9.10;1.73;;;18.10;99.90;;;;;;5056927;28;20202;-30
2022/09/09 05:14:12;;;;;;;5.73;1.40;;;18.10;99.80;;;;;;5060599;28;20200;-30
2022/09/09 05:16:39;;;;;;;3.45;1.70;;;18.10;99.80;;;;;;5056621;28;20231;-30
2022/09/09 05:19:07;;;;;;;9.33;1.97;;;18.10;99.80;;;;;;5053239;28;20208;-31
2022/09/09 05:21:35;;;;;;;5.90;2.00;;;18.10;99.90;;;;;;5057654;28;20605;-31
2022/09/09 05:24:04;;;;;;;10.20;2.00;;;18.10;99.80;;;;;;5059533;28;20207;-30
2022/09/09 05:26:34;;;;;;;8.80;1.67;;;18.10;99.90;;;;;;5068781;28;20302;-31
2022/09/09 05:29:01;;;;;;;7.23;1.90;;;18.10;99.90;;;;;;5059881;28;20206;-31
2022/09/09 05:31:33;;;;;;;5.77;1.33;;;18.10;99.90;;;;;;5058386;28;20215;-30
2022/09/09 05:34:00;;;;;;;6.47;1.70;;;18.10;99.90;;;;;;5057808;28;20193;-30
2022/09/09 05:36:28;;;;;;;7.57;1.97;;;18.10;99.90;;;;;;5061353;28;20215;-31
2022/09/09 05:39:02;;;;;;;7.97;1.40;;;18.10;99.90;;;;;;5060010;28;20201;-31
2022/09/09 05:41:32;;;;;;;3.37;1.60;;;18.10;99.90;;;;;;5066698;28;20658;-31
2022/09/09 05:44:03;;;;;;;10.47;1.77;;;18.10;99.90;;;;;;5048932;28;20194;-31
2022/09/09 05:46:32;;;;;;;7.60;1.77;;;18.10;99.90;;;;;;5066062;28;20203;-30
2022/09/09 05:49:00;;;;;;;5.27;1.80;;;18.10;99.90;;;;;;5048997;28;20228;-30
2022/09/09 05:51:30;;;;;;;6.30;1.70;;;18.20;99.90;;;;;;5057331;28;20196;-30
2022/09/09 05:54:00;;;;;;;5.97;1.70;;;18.20;99.90;;;;;;5062926;28;20238;-31
2022/09/09 05:56:29;;;;;;;8.23;1.90;;;18.20;99.90;;;;;;5063900;28;20281;-31
2022/09/09 05:58:56;;;;;;;6.47;2.17;;;18.20;99.90;;;;;;5060723;28;20309;-30
2022/09/09 06:01:32;;;;;;;9.27;1.70;;;18.30;99.90;;;;;;5064508;28;20196;-31
2022/09/09 06:04:03;;;;;;;7.07;1.95;;;18.30;99.90;;;;;;5069227;28;20689;-31
2022/09/09 06:06:36;;;;;;;8.75;1.88;;;18.30;99.90;;;;;;5063240;28;20216;-31
2022/09/09 06:09:06;;;;;;;10.37;2.17;;;18.40;99.90;;;;;;5052661;28;20733;-31
2022/09/09 06:11:37;;;;;;;6.67;1.40;;;18.40;99.90;;;;;;5058700;28;20203;-31
2022/09/09 06:14:05;;;;;;;5.37;1.83;;;18.40;99.90;;;;;;5066296;28;20273;-31
2022/09/09 06:16:33;;;;;;;10.97;2.30;;;18.40;99.90;;;;;;5069165;28;20231;-31
2022/09/09 06:19:03;;;;;;;7.03;1.80;;;18.50;99.90;;;;;;5063523;28;20299;-31
2022/09/09 06:21:38;;;;;;;10.65;2.92;;;18.50;99.90;;;;;;5055118;28;20298;-31
2022/09/09 06:24:08;;;;;;;5.50;1.80;;;18.50;99.90;;;;;;5052438;28;20322;-30
2022/09/09 06:26:42;;;;;;;7.55;1.65;;;18.50;99.90;;;;;;5057350;28;20204;-31
2022/09/09 06:29:10;;;;;;;7.33;2.20;;;18.60;99.90;;;;;;5061733;28;20222;-31
2022/09/09 06:31:38;;;;;;;5.85;1.63;;;18.60;99.90;;;;;;5064227;28;20207;-31
2022/09/09 06:34:10;;;;;;;5.30;1.40;;;18.60;99.90;;;;;;5065786;28;20732;-31
2022/09/09 06:36:41;;;;;;;9.57;1.88;;;18.70;99.90;;;;;;5065764;28;20273;-31
2022/09/09 06:39:15;;;;;;;11.13;2.30;;;18.70;99.90;;;;;;5067589;28;20580;-30
2022/09/09 06:41:48;;;;;;;8.10;1.77;;;18.70;99.90;;;;;;5064697;28;20216;-31
2022/09/09 06:44:20;;;;;;;11.40;2.27;;;18.70;99.90;;;;;;5062014;28;20269;-33
2022/09/09 06:46:49;;;;;;;11.27;1.53;;;18.70;99.90;;;;;;5058440;28;20204;-35
2022/09/09 06:49:19;;;;;;;8.07;1.83;;;18.70;99.90;;;;;;5047632;28;20731;-35
2022/09/09 06:51:51;;;;;;;9.88;2.13;;;18.80;99.90;;;;;;5048478;28;20200;-35
2022/09/09 06:54:23;;;;;;;7.15;1.77;;;18.80;99.90;;;;;;5056722;28;20231;-35
2022/09/09 06:56:53;;;;;;;7.30;2.10;;;18.80;99.90;;;;;;5049418;28;20581;-35
2022/09/09 06:59:20;;;;;;;8.15;1.90;;;18.90;99.90;;;;;;5056735;28;20223;-35
2022/09/09 07:01:47;;;;;;;7.93;2.00;;;18.90;99.90;;;;;;5061559;28;20209;-32
2022/09/09 07:04:25;;;;;;;12.17;2.10;;;18.90;99.90;;;;;;5062347;28;20200;-32
2022/09/09 07:06:52;;;;;;;6.10;1.50;;;18.90;99.90;;;;;;5050606;28;20203;-33
2022/09/09 07:09:24;;;;;;;12.77;2.03;;;18.90;99.90;;;;;;5057372;28;20535;-33
2022/09/09 07:11:59;;;;;;;10.50;1.97;;;19.00;99.90;;;;;;5046657;28;20958;-33
2022/09/09 07:14:28;;;;;;;11.95;1.75;;;19.00;99.90;;;;;;5048003;28;20649;-32
2022/09/09 07:16:58;;;;;;;10.70;2.20;;;19.00;99.90;;;;;;5046192;28;20275;-33
2022/09/09 07:19:28;;;;;;;4.47;1.30;;;19.00;99.90;;;;;;5058643;28;20196;-33
2022/09/09 07:21:55;;;;;;;6.63;1.70;;;19.00;99.90;;;;;;5066278;28;20199;-33
2022/09/09 07:24:23;;;;;;;7.63;2.00;;;19.00;99.90;;;;;;5061309;28;20209;-32
2022/09/09 07:26:53;;;;;;;5.37;1.67;;;19.00;99.90;;;;;;5055203;28;20204;-33
2022/09/09 07:29:20;;;;;;;2.70;1.33;;;19.10;99.90;;;;;;5046368;28;20682;-32
2022/09/09 07:31:50;;;;;;;7.13;2.30;;;19.10;99.90;;;;;;5051586;28;20253;-33
2022/09/09 07:34:20;;;;;;;6.37;1.87;;;19.10;99.90;;;;;;5063940;28;20761;-33
2022/09/09 07:36:48;;;;;;;6.40;1.80;;;19.10;99.90;;;;;;5070567;28;20342;-32
2022/09/09 07:39:17;;;;;;;7.50;2.10;;;19.10;99.90;;;;;;5075186;28;20638;-33
2022/09/09 07:41:47;;;;;;;4.45;1.60;;;19.10;99.90;;;;;;5051234;28;20200;-33
2022/09/09 07:44:23;;;;;;;5.13;1.40;;;19.10;99.90;;;;;;5068353;28;20212;-33
2022/09/09 07:46:50;;;;;;;8.40;1.67;;;19.10;99.90;;;;;;5060387;28;20242;-33
2022/09/09 07:49:18;;;;;;;5.70;1.80;;;19.10;99.90;;;;;;5061656;28;20204;-33
2022/09/09 07:51:54;;;;;;;5.80;1.33;;;19.20;99.90;;;;;;5063150;28;20310;-33
2022/09/09 07:54:25;;;;;;;11.65;1.88;;;19.20;99.90;;;;;;5054620;28;20620;-33
2022/09/09 07:56:55;;;;;;;8.00;2.00;;;19.20;99.90;;;;;;5061670;28;20685;-33
2022/09/09 07:59:25;;;;;;;5.93;1.73;;;19.20;99.90;;;;;;5053275;28;20228;-33
2022/09/09 08:01:58;;;;;;;10.10;1.80;;;19.20;99.90;;;;;;5047512;28;20196;-33
2022/09/09 08:04:27;;;;;;;7.23;1.60;;;19.30;99.90;;;;;;5048822;28;20340;-33
2022/09/09 08:07:01;;;;;;;6.83;1.93;;;19.30;99.90;;;;;;5045533;28;20690;-33
2022/09/09 08:09:28;;;;;;;4.13;1.35;;;19.30;99.90;;;;;;5056970;28;20223;-33
2022/09/09 08:11:56;;;;;;;6.97;1.47;;;19.30;99.90;;;;;;5045337;28;20212;-33
2022/09/09 08:14:27;;;;;;;11.57;1.97;;;19.30;99.90;;;;;;5048849;28;20196;-33
2022/09/09 08:16:55;;;;;;;10.47;2.10;;;19.40;99.90;;;;;;5056330;28;20649;-33
2022/09/09 08:19:23;;;;;;;6.07;1.42;;;19.40;99.90;;;;;;5060730;28;20204;-33
2022/09/09 08:21:50;;;;;;;5.13;1.65;;;19.50;99.90;;;;;;5047287;28;20204;-33
2022/09/09 08:24:22;;;;;;;8.30;1.87;;;19.50;99.90;;;;;;5045207;28;20560;-33
2022/09/09 08:26:53;;;;;;;5.75;1.50;;;19.50;99.90;;;;;;5045448;28;20223;-33
2022/09/09 08:29:25;;;;;;;4.57;1.70;;;19.60;99.90;;;;;;5047483;28;20299;-33
2022/09/09 08:31:54;;;;;;;7.45;2.00;;;19.60;99.90;;;;;;5061906;28;20278;-33
2022/09/09 08:34:24;;;;;;;7.35;1.83;;;19.70;99.90;;;;;;5053224;28;20206;-33
2022/09/09 08:36:54;;;;;;;10.38;2.13;;;19.80;99.90;;;;;;5063039;28;20702;-34
2022/09/09 08:39:22;;;;;;;9.47;1.53;;;19.80;99.90;;;;;;5057950;28;20204;-33
2022/09/09 08:42:01;;;;;;;5.22;1.50;;;19.90;99.90;;;;;;5059791;28;20660;-34
2022/09/09 08:44:31;;;;;;;6.00;1.60;;;20.00;99.90;;;;;;5048393;28;20196;-35
2022/09/09 08:47:28;;;;;;;5.03;1.60;;;20.00;99.90;;;;;;5055383;28;20219;-34
2022/09/09 08:50:35;;;;;;;6.32;1.50;;;20.00;99.90;;;;;;5063539;28;20198;-35
2022/09/09 08:53:19;;;;;;;12.32;1.90;;;20.00;99.90;;;;;;5061385;28;20203;-34
2022/09/09 08:55:52;;;;;;;5.72;1.42;;;20.00;99.90;;;;;;5054976;28;20231;-35
2022/09/09 08:58:41;;;;;;;5.88;1.58;;;20.00;99.90;;;;;;5057147;28;20238;-34
2022/09/09 09:01:08;;;;;;;8.10;1.80;;;20.00;99.90;;;;;;5063443;28;20212;-34
2022/09/09 09:03:53;;;;;;;4.18;1.50;;;20.00;99.90;;;;;;5056062;28;20266;-35
2022/09/09 09:06:41;;;;;;;5.05;1.65;;;19.90;99.90;;;;;;5059109;28;20195;-34
2022/09/09 09:09:30;;;;;;;7.53;1.45;;;19.90;99.90;;;;;;5061008;28;20301;-34
2022/09/09 09:12:02;;;;;;;3.75;1.70;;;19.90;99.90;;;;;;5065794;28;20207;-34
2022/09/09 09:14:34;;;;;;;5.15;1.23;;;19.90;99.90;;;;;;5052174;28;20213;-35
2022/09/09 09:17:09;;;;;;;4.88;1.38;;;19.90;99.90;;;;;;5065202;28;20273;-34
2022/09/09 09:19:43;;;;;;;5.18;1.80;;;19.90;99.90;;;;;;5054699;28;20871;-34
2022/09/09 09:22:38;;;;;;;8.10;1.70;;;19.90;99.90;;;;;;5058869;28;20225;-35
2022/09/09 09:25:17;;;;;;;8.98;1.60;;;20.00;99.90;;;;;;5061676;28;20646;-34
2022/09/09 09:28:06;;;;;;;7.05;1.63;;;20.00;99.90;;;;;;5057949;28;20204;-35
2022/09/09 09:31:01;;;;;;;6.13;1.52;;;20.00;99.90;;;;;;5062979;28;20212;-34
2022/09/09 09:33:46;;;;;;;4.70;1.30;;;20.00;99.90;;;;;;5050720;28;20296;-33
2022/09/09 09:36:15;;;;;;;6.95;1.42;;;20.00;99.90;;;;;;5050355;28;20204;-33
2022/09/09 09:38:56;;;;;;;6.05;1.60;;;20.00;99.90;;;;;;5065057;28;20220;-32
2022/09/09 09:41:45;;;;;;;7.63;1.40;;;20.00;99.90;;;;;;5068392;28;20207;-33
2022/09/09 09:44:30;;;;;;;5.45;1.70;;;20.00;99.90;;;;;;5064311;28;20196;-32
2022/09/09 09:47:14;;;;;;;4.88;1.65;;;20.10;99.90;;;;;;5052658;28;20220;-40
2022/09/09 09:49:59;;;;;;;5.25;1.30;;;20.10;99.90;;;;;;5058724;28;20210;-34
2022/09/09 09:52:36;;;;;;;3.63;1.20;;;20.10;99.90;;;;;;5056540;28;20295;-35
2022/09/09 09:55:12;;;;;;;5.80;1.50;;;20.10;99.90;;;;;;5050455;28;20303;-35
2022/09/09 09:57:39;;;;;;;3.65;1.17;;;20.10;99.90;;;;;;5061636;28;20242;-35
2022/09/09 10:00:20;;;;;;;6.07;1.70;;;20.10;99.90;;;;;;5069129;28;20200;-35
2022/09/09 10:02:49;;;;;;;6.18;1.42;;;20.10;99.90;;;;;;5033251;28;20214;-34
2022/09/09 10:05:22;;;;;;;6.65;1.83;;;20.10;99.90;;;;;;5063551;28;20208;-34
2022/09/09 10:08:02;;;;;;;4.57;1.48;;;20.20;99.90;;;;;;5055974;28;20223;-34
2022/09/09 10:11:08;;;;;;;7.45;1.67;;;20.20;99.90;;;;;;5059480;28;20548;-34
2022/09/09 10:14:19;;;;;;;8.77;2.13;;;20.20;99.90;;;;;;5053017;28;21084;-35
2022/09/09 10:17:04;;;;;;;3.38;1.65;;;20.20;99.90;;;;;;5061411;28;20319;-35
2022/09/09 10:19:36;;;;;;;5.15;1.73;;;20.20;99.90;;;;;;5069885;28;20947;-34
2022/09/09 10:22:22;;;;;;;7.50;1.45;;;20.20;99.90;;;;;;5058387;28;20638;-35
2022/09/09 10:25:24;;;;;;;5.15;1.60;;;20.20;99.90;;;;;;5053689;28;20192;-34
2022/09/09 10:28:10;;;;;;;5.07;1.40;;;20.20;99.90;;;;;;5049360;28;20300;-34
2022/09/09 10:31:04;;;;;;;5.47;1.50;;;20.20;99.90;;;;;;5055102;28;20211;-35
2022/09/09 10:33:50;;;;;;;4.68;1.42;;;20.10;99.90;;;;;;5054469;28;20238;-35
2022/09/09 10:36:28;;;;;;;3.78;1.45;;;20.10;99.90;;;;;;5049218;28;20204;-34
2022/09/09 10:38:59;;;;;;;5.55;1.70;;;20.10;99.90;;;;;;5054705;28;20226;-35
2022/09/09 10:41:45;;;;;;;5.88;1.50;;;20.20;99.90;;;;;;5058648;28;20675;-34
2022/09/09 10:44:29;;;;;;;3.95;1.42;;;20.10;99.90;;;;;;5064709;28;20250;-34
2022/09/09 10:47:32;;;;;;;4.85;1.30;;;20.10;99.90;;;;;;5066277;28;20216;-35
2022/09/09 10:50:27;;;;;;;6.68;1.75;;;20.10;99.90;;;;;;5055239;28;20814;-35
2022/09/09 10:53:31;;;;;;;4.40;1.48;;;20.10;99.90;;;;;;5065550;28;20298;-35
2022/09/09 10:56:14;;;;;;;9.00;1.80;;;20.10;99.90;;;;;;5062521;28;20610;-35
2022/09/09 10:58:52;;;;;;;4.47;1.98;;;20.10;99.90;;;;;;5065557;28;20976;-35
2022/09/09 11:01:36;;;;;;;5.28;1.55;;;20.10;99.90;;;;;;5062065;28;20199;-34
2022/09/09 11:04:19;;;;;;;8.27;2.00;;;20.10;99.90;;;;;;5051538;28;20253;-34
2022/09/09 11:06:52;;;;;;;12.88;2.55;;;20.10;99.90;;;;;;5048642;28;20730;-34
2022/09/09 11:09:30;;;;;;;5.78;1.58;;;20.10;99.90;;;;;;5048795;28;20196;-34
2022/09/09 11:12:02;;;;;;;6.47;1.88;;;20.20;99.90;;;;;;5051151;28;20206;-34
2022/09/09 11:14:44;;;;;;;6.72;2.13;;;20.30;99.90;;;;;;5060195;28;20219;-35
2022/09/09 11:17:19;;;;;;;6.32;1.95;;;20.30;99.90;;;;;;5066574;28;20219;-34
2022/09/09 11:19:50;;;;;;;5.93;1.70;;;20.40;99.90;;;;;;5069009;28;20203;-34
2022/09/09 11:22:33;;;;;;;7.82;1.80;;;20.40;99.90;;;;;;5067639;28;20214;-33
2022/09/09 11:25:20;;;;;;;9.75;1.88;;;20.40;99.90;;;;;;5068850;28;20203;-33
2022/09/09 11:27:59;;;;;;;5.80;1.77;;;20.50;99.90;;;;;;5068189;28;20207;-33
2022/09/09 11:31:01;;;;;;;7.40;2.58;;;20.50;99.90;;;;;;5051398;28;20310;-34
2022/09/09 11:33:37;;;;;;;4.75;1.50;;;20.60;99.90;;;;;;5057520;28;20280;-32
2022/09/09 11:36:35;;;;;;;6.75;1.98;;;20.60;99.90;;;;;;5048270;28;20203;-32
2022/09/09 11:39:14;;;;;;;4.90;1.60;;;20.70;99.90;;;;;;5048969;28;20224;-32
2022/09/09 11:41:46;;;;;;;6.55;1.88;;;20.80;99.90;;;;;;5048258;28;20202;-32
2022/09/09 11:44:21;;;;;;;3.88;1.50;;;20.80;99.90;;;;;;5047991;28;20196;-32
2022/09/09 11:46:53;;;;;;;8.32;2.10;;;20.80;99.90;;;;;;5051334;28;20207;-32
2022/09/09 11:49:41;;;;;;;4.80;1.60;;;20.80;99.90;;;;;;5048914;28;20212;-32
2022/09/09 11:52:36;;;;;;;6.00;1.67;;;20.90;99.90;;;;;;5068592;28;20827;-31
2022/09/09 11:55:23;;;;;;;9.20;1.65;;;20.90;99.90;;;;;;5066754;28;20207;-32
2022/09/09 11:58:01;;;;;;;7.35;2.10;;;21.00;99.90;;;;;;5067802;28;20243;-31
2022/09/09 12:00:36;;;;;;;14.63;1.80;;;21.00;99.90;;;;;;5050615;28;20728;-32
2022/09/09 12:03:32;;;;;;;11.27;1.77;;;21.00;99.90;;;;;;5065417;28;20209;-32
2022/09/09 12:06:11;;;;;;;4.80;1.30;;;21.10;99.90;;;;;;5055974;28;20558;-31
2022/09/09 12:08:46;;;;;;;4.90;1.42;;;21.10;99.90;;;;;;5063941;28;20235;-32
2022/09/09 12:11:28;;;;;;;6.25;1.60;;;21.10;99.90;;;;;;5048538;28;20212;-32
2022/09/09 12:14:00;;;;;;;5.10;1.30;;;21.10;99.90;;;;;;5047170;28;20215;-33
2022/09/09 12:16:34;;;;;;;3.55;1.30;;;21.20;99.90;;;;;;5047398;28;20291;-37
2022/09/09 12:19:15;;;;;;;3.60;1.48;;;21.20;99.90;;;;;;5045893;28;20231;-33
2022/09/09 12:22:14;;;;;;;3.33;1.35;;;21.20;99.90;;;;;;5068118;28;20294;-33
2022/09/09 12:25:04;;;;;;;9.23;1.75;;;21.30;99.90;;;;;;5059721;28;20218;-33
2022/09/09 12:27:45;;;;;;;4.05;1.20;;;21.30;99.90;;;;;;5053166;28;20269;-33
2022/09/09 12:30:19;;;;;;;6.03;1.50;;;21.30;99.90;;;;;;5063423;28;20213;-33
2022/09/09 12:33:01;;;;;;;4.03;1.40;;;21.20;99.90;;;;;;5051076;28;20220;-33
2022/09/09 12:35:30;;;;;;;5.75;1.02;;;21.20;99.90;;;;;;5049499;28;20211;-32
2022/09/09 12:38:04;;;;;;;6.07;1.30;;;21.30;99.90;;;;;;5047698;28;20285;-33
2022/09/09 12:40:36;;;;;;;4.97;1.35;;;21.30;99.90;;;;;;5058226;28;20200;-33
2022/09/09 12:43:21;;;;;;;8.35;1.35;;;21.30;99.90;;;;;;5050912;28;20310;-33
2022/09/09 12:45:58;;;;;;;2.75;1.08;;;21.30;99.90;;;;;;5060073;28;20230;-33
2022/09/09 12:48:46;;;;;;;4.93;1.60;;;21.30;99.90;;;;;;5069559;28;20199;-33
2022/09/09 12:51:43;;;;;;;3.88;1.00;;;21.40;99.90;;;;;;5070065;28;20277;-33
2022/09/09 12:54:15;;;;;;;6.18;1.75;;;21.40;99.90;;;;;;5063430;28;20281;-33
2022/09/09 12:56:46;;;;;;;7.90;1.77;;;21.40;99.90;;;;;;5038987;28;20585;-32
2022/09/09 12:59:28;;;;;;;5.68;1.33;;;21.40;99.90;;;;;;5058012;28;20251;-33
2022/09/09 13:01:56;;;;;;;4.53;1.52;;;21.40;99.90;;;;;;5066836;28;20616;-32
2022/09/09 13:04:24;;;;;;;5.40;1.20;;;21.40;99.90;;;;;;5063410;28;20700;-36
2022/09/09 13:06:52;;;;;;;3.33;1.17;;;21.40;99.90;;;;;;5056227;28;20221;-33
2022/09/09 13:09:22;;;;;;;3.08;1.20;;;21.40;99.90;;;;;;5064451;28;20214;-32
2022/09/09 13:11:56;;;;;;;4.50;1.33;;;21.40;99.90;;;;;;5052183;28;20204;-32
2022/09/09 13:14:37;;;;;;;4.60;1.23;;;21.40;99.90;;;;;;5051797;28;20216;-33
2022/09/09 13:17:06;;;;;;;2.38;1.00;;;21.50;99.90;;;;;;5051837;28;20303;-32
2022/09/09 13:19:39;;;;;;;4.47;1.20;;;21.40;99.90;;;;;;5051395;28;20200;-35
2022/09/09 13:22:40;;;;;;;4.43;1.10;;;21.40;99.90;;;;;;5050961;28;20196;-35
2022/09/09 13:25:11;;;;;;;3.72;1.17;;;21.50;99.90;;;;;;5055937;28;20738;-36
2022/09/09 13:27:42;;;;;;;2.10;0.90;;;21.50;99.90;;;;;;5065228;28;20218;-36
2022/09/09 13:30:56;;;;;;;4.35;0.98;;;21.50;99.90;;;;;;5053661;28;20211;-36